Sterling, MI (48659)

11:54 AM EDT on June 23, 2017 (GMT -0400)
South Main Street | | Change Station

Elev 610 ft 44.05 °N, 83.85 °W | Updated 4 minutes ago

Overcast
Overcast
72.3 °F
Feels Like 72.3 °F
N
3.1
Wind Variable Wind from West
Gusts 5.0 mph

Today
High -- | Low -- °F
--% Chance of Precip.
Yesterday
High -- | Low -- °F
Precip. -- in
Pressure 29.59 in
Visibility 2.0 miles
Clouds Overcast 500 ft
Dew Point 72 °F
Humidity 98%
Rainfall 1.26 in
Snow Depth Not available.
5:53 AM 9:23 PM
Waning Crescent, 0% visible
METAR KIKW 231533Z AUTO 27005KT 2SM -RA OVC005 20/19 A2959 RMK AO2 T02020191
Pressure 29.59 in
Visibility 2.0 miles
Clouds Overcast 500 ft
Dew Point 72 °F
Humidity 98%
Rainfall 1.26 in
Snow Depth Not available.
5:53 AM 9:23 PM
Waning Crescent, 0% visible
METAR KIKW 231533Z AUTO 27005KT 2SM -RA OVC005 20/19 A2959 RMK AO2 T02020191

Get Severe Weather Alerts

Thanks for signing up!

Be on the lookout for a verification email in your inbox.

You'll start receiving the daily forecast at 6 AM.

×

10-Day Weather Forecast

Almanac

Astronomy

Jun. 23, 2017 Rise Set
Actual Time
Civil Twilight
Nautical Twilight
Astronomical Twilight
Moon
Length of Visible Light
Length of Day
Tomorrow will be .
, % of the Moon is Illuminated

Today's Extremes

State Highs State Lows

Community

WunderPhotos

Category 6

Welcome to Category 6. This is the collective home for Weather Underground's featured writeups by Dr. Jeff Masters (right), Bob Henson (left), Chris Burt, and other regular contributors.

Nearby

Air Quality

  Air Quality AQ Index Pollutant
Not available.

Snow Depth

Station Depth Elevation

Earthquake Activity

City Distance Mag. Time & Date
Minimum magnitude displayed is 2.5.

Coastal Water Temperatures

Place Temperature

Stations

Nearby Weather Stations

Station Location Temp. Windchill Dew Point Humidity Wind Precip. Elev Updated Type
                   

Watches & Warnings

There are currently no watches in effect.